< < Back
Terminal Aerodrome Forecast


Current Version              Previous Versions:   1  2  3  4  5  6  7  8  9  

Terminal Aerodrome Forecast

207
FTUS42 KTAE 042321
TAFTLH
TAF
KTLH 042321Z 0500/0524 06008KT P6SM BKN060
     FM050100 08005KT P6SM SKC=



Latest METAR

414
SAUS80 KWBC 051800 RRA
MTRTLH
METAR KTLH 051753Z 06009KT 10SM BKN050 BKN250 28/13 A3020 RMK AO2 SLP224
T02830133 10289 20194 58016


USA.gov is the U.S. government's official web portal to all federal, state and local government web resources and services.